sensor_id;sensor_type;location;lat;lon;timestamp;P1;P2;P0
62547;PMS7003;48602;45.192;5.722;2023-04-30T00:01:02;10.25;10.25;8.50
62547;PMS7003;48602;45.192;5.722;2023-04-30T00:03:28;12.25;9.75;9.25
62547;PMS7003;48602;45.192;5.722;2023-04-30T00:05:53;11.50;10.25;8.25
62547;PMS7003;48602;45.192;5.722;2023-04-30T00:08:19;8.00;7.50;6.50
62547;PMS7003;48602;45.192;5.722;2023-04-30T00:10:44;14.00;12.50;10.75
62547;PMS7003;48602;45.192;5.722;2023-04-30T00:13:10;12.25;11.00;9.25
62547;PMS7003;48602;45.192;5.722;2023-04-30T00:15:37;10.00;8.00;7.00
62547;PMS7003;48602;45.192;5.722;2023-04-30T00:18:03;9.00;7.50;7.00
62547;PMS7003;48602;45.192;5.722;2023-04-30T00:20:30;9.00;8.50;7.00
62547;PMS7003;48602;45.192;5.722;2023-04-30T00:22:56;11.25;10.00;8.00
62547;PMS7003;48602;45.192;5.722;2023-04-30T00:25:21;7.25;7.25;6.50
62547;PMS7003;48602;45.192;5.722;2023-04-30T00:27:48;11.50;11.50;10.00
62547;PMS7003;48602;45.192;5.722;2023-04-30T00:30:14;11.50;10.00;8.50
62547;PMS7003;48602;45.192;5.722;2023-04-30T00:32:39;9.25;9.00;7.50
62547;PMS7003;48602;45.192;5.722;2023-04-30T00:35:05;10.00;6.00;6.00
62547;PMS7003;48602;45.192;5.722;2023-04-30T00:37:30;9.25;9.25;7.50
62547;PMS7003;48602;45.192;5.722;2023-04-30T00:39:56;9.25;9.25;7.50
62547;PMS7003;48602;45.192;5.722;2023-04-30T00:42:22;6.00;5.50;4.25
62547;PMS7003;48602;45.192;5.722;2023-04-30T00:44:47;9.75;7.25;6.25
62547;PMS7003;48602;45.192;5.722;2023-04-30T00:47:12;10.50;8.25;7.00
62547;PMS7003;48602;45.192;5.722;2023-04-30T00:49:38;8.00;8.00;7.00
62547;PMS7003;48602;45.192;5.722;2023-04-30T00:52:03;8.25;8.25;7.50
62547;PMS7003;48602;45.192;5.722;2023-04-30T00:54:29;12.50;12.50;11.25
62547;PMS7003;48602;45.192;5.722;2023-04-30T00:56:54;6.00;6.00;6.00
62547;PMS7003;48602;45.192;5.722;2023-04-30T00:59:20;8.50;7.00;6.25
62547;PMS7003;48602;45.192;5.722;2023-04-30T01:01:45;35.00;31.67;23.67
62547;PMS7003;48602;45.192;5.722;2023-04-30T01:04:11;16.25;16.25;12.50
62547;PMS7003;48602;45.192;5.722;2023-04-30T01:06:36;14.50;14.00;12.25
62547;PMS7003;48602;45.192;5.722;2023-04-30T01:09:02;10.50;10.50;8.25
62547;PMS7003;48602;45.192;5.722;2023-04-30T01:14:24;10.50;10.00;8.50
62547;PMS7003;48602;45.192;5.722;2023-04-30T01:16:59;10.20;9.60;6.80
62547;PMS7003;48602;45.192;5.722;2023-04-30T01:19:41;7.50;7.50;6.50
62547;PMS7003;48602;45.192;5.722;2023-04-30T01:22:11;11.25;9.00;7.50
62547;PMS7003;48602;45.192;5.722;2023-04-30T01:30:25;9.20;7.60;6.00
62547;PMS7003;48602;45.192;5.722;2023-04-30T01:32:51;8.75;8.75;8.00
62547;PMS7003;48602;45.192;5.722;2023-04-30T01:35:17;6.00;5.50;5.50
62547;PMS7003;48602;45.192;5.722;2023-04-30T01:37:58;8.75;7.50;6.50
62547;PMS7003;48602;45.192;5.722;2023-04-30T01:48:21;10.00;7.20;6.60
62547;PMS7003;48602;45.192;5.722;2023-04-30T01:50:57;7.00;7.00;5.25
62547;PMS7003;48602;45.192;5.722;2023-04-30T01:53:31;7.75;7.25;6.00
62547;PMS7003;48602;45.192;5.722;2023-04-30T01:56:03;13.75;11.75;10.50
62547;PMS7003;48602;45.192;5.722;2023-04-30T01:58:33;6.00;6.00;5.80
62547;PMS7003;48602;45.192;5.722;2023-04-30T02:01:00;6.50;6.25;5.50
62547;PMS7003;48602;45.192;5.722;2023-04-30T02:03:25;11.25;7.00;6.75
62547;PMS7003;48602;45.192;5.722;2023-04-30T02:05:51;8.25;6.00;6.00
62547;PMS7003;48602;45.192;5.722;2023-04-30T02:08:17;9.60;7.60;7.60
62547;PMS7003;48602;45.192;5.722;2023-04-30T02:10:42;6.00;6.00;5.25
62547;PMS7003;48602;45.192;5.722;2023-04-30T02:13:07;9.00;9.00;7.75
62547;PMS7003;48602;45.192;5.722;2023-04-30T02:15:33;6.75;6.75;6.00
62547;PMS7003;48602;45.192;5.722;2023-04-30T02:17:58;6.50;6.50;6.00
62547;PMS7003;48602;45.192;5.722;2023-04-30T02:20:23;7.00;7.00;6.00
62547;PMS7003;48602;45.192;5.722;2023-04-30T02:22:49;6.00;6.00;6.00
62547;PMS7003;48602;45.192;5.722;2023-04-30T02:25:15;7.75;7.75;6.75
62547;PMS7003;48602;45.192;5.722;2023-04-30T02:27:40;7.75;7.00;5.75
62547;PMS7003;48602;45.192;5.722;2023-04-30T02:30:06;6.50;6.50;6.00
62547;PMS7003;48602;45.192;5.722;2023-04-30T02:32:32;6.75;6.00;5.25
62547;PMS7003;48602;45.192;5.722;2023-04-30T02:34:57;7.75;7.00;6.75
62547;PMS7003;48602;45.192;5.722;2023-04-30T02:37:23;8.00;6.75;6.50
62547;PMS7003;48602;45.192;5.722;2023-04-30T02:39:48;10.00;8.00;6.00
62547;PMS7003;48602;45.192;5.722;2023-04-30T02:42:14;6.50;6.25;6.00
62547;PMS7003;48602;45.192;5.722;2023-04-30T02:44:39;7.50;7.50;7.00
62547;PMS7003;48602;45.192;5.722;2023-04-30T02:47:05;8.25;7.75;5.25
62547;PMS7003;48602;45.192;5.722;2023-04-30T02:49:30;7.50;7.50;6.75
62547;PMS7003;48602;45.192;5.722;2023-04-30T02:51:56;8.25;8.25;6.75
62547;PMS7003;48602;45.192;5.722;2023-04-30T02:54:21;8.00;7.75;6.50
62547;PMS7003;48602;45.192;5.722;2023-04-30T02:56:46;7.00;7.00;6.25
62547;PMS7003;48602;45.192;5.722;2023-04-30T02:59:12;9.75;8.75;7.75
62547;PMS7003;48602;45.192;5.722;2023-04-30T03:01:37;7.50;7.50;6.25
62547;PMS7003;48602;45.192;5.722;2023-04-30T03:04:03;7.25;7.25;6.75
62547;PMS7003;48602;45.192;5.722;2023-04-30T03:06:29;8.25;7.50;6.75
62547;PMS7003;48602;45.192;5.722;2023-04-30T03:08:55;6.25;6.25;5.25
62547;PMS7003;48602;45.192;5.722;2023-04-30T03:11:21;5.25;5.25;4.00
62547;PMS7003;48602;45.192;5.722;2023-04-30T03:13:47;6.75;6.75;6.00
62547;PMS7003;48602;45.192;5.722;2023-04-30T03:16:16;7.00;7.00;6.00
62547;PMS7003;48602;45.192;5.722;2023-04-30T03:18:43;7.00;6.80;6.00
62547;PMS7003;48602;45.192;5.722;2023-04-30T03:21:09;8.50;6.75;6.00
62547;PMS7003;48602;45.192;5.722;2023-04-30T03:23:35;6.25;6.25;5.25
62547;PMS7003;48602;45.192;5.722;2023-04-30T03:26:00;8.50;7.25;6.00
62547;PMS7003;48602;45.192;5.722;2023-04-30T03:28:26;6.00;5.00;4.00
62547;PMS7003;48602;45.192;5.722;2023-04-30T03:30:51;8.25;7.75;7.25
62547;PMS7003;48602;45.192;5.722;2023-04-30T03:33:17;7.00;7.00;6.25
62547;PMS7003;48602;45.192;5.722;2023-04-30T03:35:42;7.00;7.00;7.00
62547;PMS7003;48602;45.192;5.722;2023-04-30T03:38:07;6.00;6.00;5.50
62547;PMS7003;48602;45.192;5.722;2023-04-30T03:40:33;8.75;8.00;7.00
62547;PMS7003;48602;45.192;5.722;2023-04-30T03:42:58;8.75;6.75;6.75
62547;PMS7003;48602;45.192;5.722;2023-04-30T03:45:24;7.00;6.50;5.50
62547;PMS7003;48602;45.192;5.722;2023-04-30T03:47:49;8.25;8.25;7.50
62547;PMS7003;48602;45.192;5.722;2023-04-30T03:50:16;8.75;8.75;5.75
62547;PMS7003;48602;45.192;5.722;2023-04-30T03:52:42;9.00;8.75;7.75
62547;PMS7003;48602;45.192;5.722;2023-04-30T03:55:08;11.00;9.25;8.00
62547;PMS7003;48602;45.192;5.722;2023-04-30T03:57:34;9.50;9.50;7.75
62547;PMS7003;48602;45.192;5.722;2023-04-30T04:00:00;8.50;7.50;6.75
62547;PMS7003;48602;45.192;5.722;2023-04-30T04:02:25;10.50;8.75;8.00
62547;PMS7003;48602;45.192;5.722;2023-04-30T04:04:51;7.00;7.00;6.25
62547;PMS7003;48602;45.192;5.722;2023-04-30T04:07:16;8.00;8.00;7.25
62547;PMS7003;48602;45.192;5.722;2023-04-30T04:09:43;11.00;11.00;8.50
62547;PMS7003;48602;45.192;5.722;2023-04-30T04:12:08;11.00;10.00;9.00
62547;PMS7003;48602;45.192;5.722;2023-04-30T04:14:34;11.00;11.00;7.50
62547;PMS7003;48602;45.192;5.722;2023-04-30T04:16:59;7.50;7.50;7.00
62547;PMS7003;48602;45.192;5.722;2023-04-30T04:19:25;9.50;8.75;7.25
62547;PMS7003;48602;45.192;5.722;2023-04-30T04:21:51;11.25;10.25;9.00
62547;PMS7003;48602;45.192;5.722;2023-04-30T04:24:16;14.00;13.00;11.25
62547;PMS7003;48602;45.192;5.722;2023-04-30T04:26:42;14.25;13.00;12.00
62547;PMS7003;48602;45.192;5.722;2023-04-30T04:29:09;13.00;11.50;8.75
62547;PMS7003;48602;45.192;5.722;2023-04-30T04:31:36;9.50;9.00;8.50
62547;PMS7003;48602;45.192;5.722;2023-04-30T04:34:02;12.50;11.75;9.00
62547;PMS7003;48602;45.192;5.722;2023-04-30T04:36:29;9.25;9.25;8.00
62547;PMS7003;48602;45.192;5.722;2023-04-30T04:38:55;9.50;9.50;7.50
62547;PMS7003;48602;45.192;5.722;2023-04-30T04:41:29;12.25;11.75;9.00
62547;PMS7003;48602;45.192;5.722;2023-04-30T04:44:02;11.00;11.00;9.25
62547;PMS7003;48602;45.192;5.722;2023-04-30T04:46:29;8.50;8.50;7.25
62547;PMS7003;48602;45.192;5.722;2023-04-30T04:48:55;11.25;9.75;9.00
62547;PMS7003;48602;45.192;5.722;2023-04-30T04:51:22;11.50;11.00;10.00
62547;PMS7003;48602;45.192;5.722;2023-04-30T04:53:47;11.25;10.00;9.00
62547;PMS7003;48602;45.192;5.722;2023-04-30T04:56:13;16.00;11.75;9.75
62547;PMS7003;48602;45.192;5.722;2023-04-30T04:58:38;11.25;11.25;10.50
62547;PMS7003;48602;45.192;5.722;2023-04-30T05:01:04;14.00;12.00;10.00
62547;PMS7003;48602;45.192;5.722;2023-04-30T05:03:30;13.75;9.50;7.00
62547;PMS7003;48602;45.192;5.722;2023-04-30T05:05:56;10.75;10.50;9.50
62547;PMS7003;48602;45.192;5.722;2023-04-30T05:08:22;10.75;10.75;9.00
62547;PMS7003;48602;45.192;5.722;2023-04-30T05:10:47;14.25;12.00;10.50
62547;PMS7003;48602;45.192;5.722;2023-04-30T05:13:13;15.50;12.00;9.25
62547;PMS7003;48602;45.192;5.722;2023-04-30T05:15:38;9.75;9.00;8.00
62547;PMS7003;48602;45.192;5.722;2023-04-30T05:18:04;11.50;11.25;9.50
62547;PMS7003;48602;45.192;5.722;2023-04-30T05:20:29;11.75;11.50;10.00
62547;PMS7003;48602;45.192;5.722;2023-04-30T05:22:54;16.75;12.75;11.00
62547;PMS7003;48602;45.192;5.722;2023-04-30T05:25:20;13.25;10.50;9.00
62547;PMS7003;48602;45.192;5.722;2023-04-30T05:27:45;12.25;12.25;10.00
62547;PMS7003;48602;45.192;5.722;2023-04-30T05:30:10;10.75;10.75;8.50
62547;PMS7003;48602;45.192;5.722;2023-04-30T05:32:36;12.50;11.00;9.00
62547;PMS7003;48602;45.192;5.722;2023-04-30T05:35:02;13.75;13.00;9.25
62547;PMS7003;48602;45.192;5.722;2023-04-30T05:37:28;10.25;9.00;8.50
62547;PMS7003;48602;45.192;5.722;2023-04-30T05:39:53;10.00;9.00;8.25
62547;PMS7003;48602;45.192;5.722;2023-04-30T05:42:19;11.50;11.50;10.00
62547;PMS7003;48602;45.192;5.722;2023-04-30T05:44:44;13.25;12.50;10.50
62547;PMS7003;48602;45.192;5.722;2023-04-30T05:47:10;14.00;11.50;9.50
62547;PMS7003;48602;45.192;5.722;2023-04-30T05:49:35;12.75;12.25;10.50
62547;PMS7003;48602;45.192;5.722;2023-04-30T05:52:01;13.00;13.00;11.00
62547;PMS7003;48602;45.192;5.722;2023-04-30T05:54:27;12.75;12.75;10.25
62547;PMS7003;48602;45.192;5.722;2023-04-30T05:56:53;15.50;14.25;10.75
62547;PMS7003;48602;45.192;5.722;2023-04-30T05:59:19;12.25;11.00;10.00
62547;PMS7003;48602;45.192;5.722;2023-04-30T06:01:44;16.50;15.00;11.25
62547;PMS7003;48602;45.192;5.722;2023-04-30T06:04:10;10.25;10.00;8.00
62547;PMS7003;48602;45.192;5.722;2023-04-30T06:06:35;15.00;12.00;10.75
62547;PMS7003;48602;45.192;5.722;2023-04-30T06:09:01;13.50;12.00;10.00
62547;PMS7003;48602;45.192;5.722;2023-04-30T06:11:28;9.50;7.25;7.25
62547;PMS7003;48602;45.192;5.722;2023-04-30T06:13:53;11.75;11.75;9.00
62547;PMS7003;48602;45.192;5.722;2023-04-30T06:16:19;14.50;13.25;10.25
62547;PMS7003;48602;45.192;5.722;2023-04-30T06:18:45;12.00;10.00;9.00
62547;PMS7003;48602;45.192;5.722;2023-04-30T06:21:10;12.75;12.25;10.50
62547;PMS7003;48602;45.192;5.722;2023-04-30T06:23:36;13.50;12.75;11.00
62547;PMS7003;48602;45.192;5.722;2023-04-30T06:26:01;12.00;12.00;10.75
62547;PMS7003;48602;45.192;5.722;2023-04-30T06:28:27;12.00;11.75;8.00
62547;PMS7003;48602;45.192;5.722;2023-04-30T06:30:52;12.75;10.25;8.50
62547;PMS7003;48602;45.192;5.722;2023-04-30T06:33:19;11.50;11.50;9.50
62547;PMS7003;48602;45.192;5.722;2023-04-30T06:35:44;11.50;9.50;8.25
62547;PMS7003;48602;45.192;5.722;2023-04-30T06:38:10;15.00;13.00;10.25
62547;PMS7003;48602;45.192;5.722;2023-04-30T06:40:35;11.25;10.00;8.00
62547;PMS7003;48602;45.192;5.722;2023-04-30T06:43:01;13.00;13.00;10.00
62547;PMS7003;48602;45.192;5.722;2023-04-30T06:45:26;14.25;14.25;12.25
62547;PMS7003;48602;45.192;5.722;2023-04-30T06:47:52;15.00;15.00;11.50
62547;PMS7003;48602;45.192;5.722;2023-04-30T06:50:18;14.25;14.25;11.25
62547;PMS7003;48602;45.192;5.722;2023-04-30T06:52:45;9.25;9.00;7.00
62547;PMS7003;48602;45.192;5.722;2023-04-30T06:55:10;14.50;12.25;9.25
62547;PMS7003;48602;45.192;5.722;2023-04-30T06:57:36;13.50;13.25;11.00
62547;PMS7003;48602;45.192;5.722;2023-04-30T07:00:05;14.75;14.00;11.75
62547;PMS7003;48602;45.192;5.722;2023-04-30T07:02:31;14.50;14.50;12.50
62547;PMS7003;48602;45.192;5.722;2023-04-30T07:04:56;13.00;13.00;11.00
62547;PMS7003;48602;45.192;5.722;2023-04-30T07:07:22;12.25;12.25;9.25
62547;PMS7003;48602;45.192;5.722;2023-04-30T07:09:48;12.50;12.50;10.00
62547;PMS7003;48602;45.192;5.722;2023-04-30T07:12:14;17.25;16.00;12.75
62547;PMS7003;48602;45.192;5.722;2023-04-30T07:14:39;12.25;10.75;10.00
62547;PMS7003;48602;45.192;5.722;2023-04-30T07:17:05;15.75;14.00;11.50
62547;PMS7003;48602;45.192;5.722;2023-04-30T07:19:30;14.50;14.00;10.50
62547;PMS7003;48602;45.192;5.722;2023-04-30T07:21:56;12.00;11.25;10.50
62547;PMS7003;48602;45.192;5.722;2023-04-30T07:24:22;12.00;11.75;9.25
62547;PMS7003;48602;45.192;5.722;2023-04-30T07:26:47;21.25;17.25;13.00
62547;PMS7003;48602;45.192;5.722;2023-04-30T07:29:13;18.75;13.25;10.25
62547;PMS7003;48602;45.192;5.722;2023-04-30T07:31:38;16.00;14.25;12.00
62547;PMS7003;48602;45.192;5.722;2023-04-30T07:34:04;17.75;14.50;11.75
62547;PMS7003;48602;45.192;5.722;2023-04-30T07:36:29;14.00;14.00;11.50
62547;PMS7003;48602;45.192;5.722;2023-04-30T07:38:54;14.25;13.50;11.25
62547;PMS7003;48602;45.192;5.722;2023-04-30T07:41:20;18.75;15.75;12.00
62547;PMS7003;48602;45.192;5.722;2023-04-30T07:43:45;12.25;11.25;10.25
62547;PMS7003;48602;45.192;5.722;2023-04-30T07:46:11;13.00;12.00;11.00
62547;PMS7003;48602;45.192;5.722;2023-04-30T07:48:36;17.75;16.00;12.75
62547;PMS7003;48602;45.192;5.722;2023-04-30T07:51:02;16.25;16.25;13.00
62547;PMS7003;48602;45.192;5.722;2023-04-30T07:53:28;15.00;15.00;11.50
62547;PMS7003;48602;45.192;5.722;2023-04-30T07:55:54;13.00;13.00;11.25
62547;PMS7003;48602;45.192;5.722;2023-04-30T07:58:19;16.75;16.00;14.00
62547;PMS7003;48602;45.192;5.722;2023-04-30T08:00:45;16.00;16.00;12.75
62547;PMS7003;48602;45.192;5.722;2023-04-30T08:03:10;13.00;10.25;9.75
62547;PMS7003;48602;45.192;5.722;2023-04-30T08:05:36;11.75;11.75;9.25
62547;PMS7003;48602;45.192;5.722;2023-04-30T08:08:02;17.50;16.75;13.00
62547;PMS7003;48602;45.192;5.722;2023-04-30T08:10:28;19.50;16.75;12.25
62547;PMS7003;48602;45.192;5.722;2023-04-30T08:12:53;16.75;16.75;13.50
62547;PMS7003;48602;45.192;5.722;2023-04-30T08:15:18;16.00;15.25;12.75
62547;PMS7003;48602;45.192;5.722;2023-04-30T08:17:49;12.25;12.25;10.50
62547;PMS7003;48602;45.192;5.722;2023-04-30T08:20:16;14.25;13.25;9.75
62547;PMS7003;48602;45.192;5.722;2023-04-30T08:22:42;18.50;17.50;14.25
62547;PMS7003;48602;45.192;5.722;2023-04-30T08:25:11;15.00;14.00;12.00
62547;PMS7003;48602;45.192;5.722;2023-04-30T08:27:37;18.75;15.00;13.00
62547;PMS7003;48602;45.192;5.722;2023-04-30T08:30:04;16.75;15.50;13.00
62547;PMS7003;48602;45.192;5.722;2023-04-30T08:32:32;20.75;18.50;15.75
62547;PMS7003;48602;45.192;5.722;2023-04-30T08:34:59;16.75;15.75;14.25
62547;PMS7003;48602;45.192;5.722;2023-04-30T08:37:25;16.25;15.00;12.00
62547;PMS7003;48602;45.192;5.722;2023-04-30T08:39:50;13.50;13.50;11.75
62547;PMS7003;48602;45.192;5.722;2023-04-30T08:42:16;19.00;18.00;12.00
62547;PMS7003;48602;45.192;5.722;2023-04-30T08:44:42;16.25;15.50;12.00
62547;PMS7003;48602;45.192;5.722;2023-04-30T08:47:10;14.00;13.50;11.25
62547;PMS7003;48602;45.192;5.722;2023-04-30T08:49:39;18.75;15.25;12.25
62547;PMS7003;48602;45.192;5.722;2023-04-30T08:52:05;19.75;18.25;12.50
62547;PMS7003;48602;45.192;5.722;2023-04-30T08:54:33;16.50;14.50;11.50
62547;PMS7003;48602;45.192;5.722;2023-04-30T08:57:00;14.00;13.50;11.00
62547;PMS7003;48602;45.192;5.722;2023-04-30T08:59:25;10.00;9.00;7.50
62547;PMS7003;48602;45.192;5.722;2023-04-30T09:01:51;18.25;17.50;13.00
62547;PMS7003;48602;45.192;5.722;2023-04-30T09:04:16;14.50;13.50;10.50
62547;PMS7003;48602;45.192;5.722;2023-04-30T09:06:42;18.75;18.50;15.25
62547;PMS7003;48602;45.192;5.722;2023-04-30T09:09:11;18.75;15.00;12.00
62547;PMS7003;48602;45.192;5.722;2023-04-30T09:11:38;19.75;15.25;12.50
62547;PMS7003;48602;45.192;5.722;2023-04-30T09:14:04;16.75;16.75;12.50
62547;PMS7003;48602;45.192;5.722;2023-04-30T09:16:46;19.75;18.25;15.00
62547;PMS7003;48602;45.192;5.722;2023-04-30T09:19:27;17.50;15.25;12.75
62547;PMS7003;48602;45.192;5.722;2023-04-30T09:21:54;19.75;18.25;14.25
62547;PMS7003;48602;45.192;5.722;2023-04-30T09:24:20;18.50;17.50;12.00
62547;PMS7003;48602;45.192;5.722;2023-04-30T09:26:46;26.25;20.00;14.75
62547;PMS7003;48602;45.192;5.722;2023-04-30T09:29:12;19.25;18.00;14.25
62547;PMS7003;48602;45.192;5.722;2023-04-30T09:31:39;19.50;17.50;13.00
62547;PMS7003;48602;45.192;5.722;2023-04-30T09:34:08;19.25;17.50;14.50
62547;PMS7003;48602;45.192;5.722;2023-04-30T09:36:34;20.25;20.00;15.50
62547;PMS7003;48602;45.192;5.722;2023-04-30T09:39:09;17.25;16.00;13.00
62547;PMS7003;48602;45.192;5.722;2023-04-30T09:41:37;16.50;16.50;13.50
62547;PMS7003;48602;45.192;5.722;2023-04-30T09:44:03;20.00;20.00;15.00
62547;PMS7003;48602;45.192;5.722;2023-04-30T09:46:32;17.00;17.00;12.25
62547;PMS7003;48602;45.192;5.722;2023-04-30T09:49:04;20.50;20.50;16.25
62547;PMS7003;48602;45.192;5.722;2023-04-30T09:51:31;9.75;8.50;8.50
62547;PMS7003;48602;45.192;5.722;2023-04-30T09:53:56;19.75;19.25;14.75
62547;PMS7003;48602;45.192;5.722;2023-04-30T09:56:23;19.50;16.25;13.25
62547;PMS7003;48602;45.192;5.722;2023-04-30T09:58:51;17.25;16.25;13.00
62547;PMS7003;48602;45.192;5.722;2023-04-30T10:01:24;17.00;16.25;13.50
62547;PMS7003;48602;45.192;5.722;2023-04-30T10:03:51;17.75;16.50;14.00
62547;PMS7003;48602;45.192;5.722;2023-04-30T10:06:17;20.75;17.75;14.00
62547;PMS7003;48602;45.192;5.722;2023-04-30T10:08:46;18.25;17.50;14.00
62547;PMS7003;48602;45.192;5.722;2023-04-30T10:11:17;14.75;14.75;12.00
62547;PMS7003;48602;45.192;5.722;2023-04-30T10:14:06;19.50;18.00;14.25
62547;PMS7003;48602;45.192;5.722;2023-04-30T10:16:40;17.25;17.25;12.25
62547;PMS7003;48602;45.192;5.722;2023-04-30T10:19:13;21.00;18.50;14.00
62547;PMS7003;48602;45.192;5.722;2023-04-30T10:21:42;18.25;17.25;12.25
62547;PMS7003;48602;45.192;5.722;2023-04-30T10:24:11;15.75;14.75;12.00
62547;PMS7003;48602;45.192;5.722;2023-04-30T10:26:38;16.75;15.75;12.50
62547;PMS7003;48602;45.192;5.722;2023-04-30T10:29:05;20.50;17.75;13.75
62547;PMS7003;48602;45.192;5.722;2023-04-30T10:31:31;17.25;17.25;14.00
62547;PMS7003;48602;45.192;5.722;2023-04-30T10:39:12;11.75;11.75;9.00
62547;PMS7003;48602;45.192;5.722;2023-04-30T10:41:45;15.75;15.00;11.75
62547;PMS7003;48602;45.192;5.722;2023-04-30T10:44:13;16.50;16.00;12.25
62547;PMS7003;48602;45.192;5.722;2023-04-30T10:46:40;20.50;20.50;15.75
62547;PMS7003;48602;45.192;5.722;2023-04-30T10:49:06;19.50;14.25;10.25
62547;PMS7003;48602;45.192;5.722;2023-04-30T10:51:48;21.00;19.50;14.50
62547;PMS7003;48602;45.192;5.722;2023-04-30T10:57:14;21.75;19.50;13.50
62547;PMS7003;48602;45.192;5.722;2023-04-30T10:59:50;13.00;12.75;9.50
62547;PMS7003;48602;45.192;5.722;2023-04-30T11:02:25;19.25;19.00;15.00
62547;PMS7003;48602;45.192;5.722;2023-04-30T11:05:17;16.75;16.75;13.50
62547;PMS7003;48602;45.192;5.722;2023-04-30T11:10:15;17.00;17.00;13.25
62547;PMS7003;48602;45.192;5.722;2023-04-30T11:12:46;20.00;19.00;14.00
62547;PMS7003;48602;45.192;5.722;2023-04-30T11:15:13;21.25;15.00;12.00
62547;PMS7003;48602;45.192;5.722;2023-04-30T11:17:44;19.00;19.00;15.25
62547;PMS7003;48602;45.192;5.722;2023-04-30T11:20:12;19.75;19.50;14.00
62547;PMS7003;48602;45.192;5.722;2023-04-30T11:22:42;23.25;20.25;16.50
62547;PMS7003;48602;45.192;5.722;2023-04-30T11:25:09;23.00;20.75;15.75
62547;PMS7003;48602;45.192;5.722;2023-04-30T11:27:37;20.00;19.00;16.00
62547;PMS7003;48602;45.192;5.722;2023-04-30T11:30:15;16.75;16.75;12.50
62547;PMS7003;48602;45.192;5.722;2023-04-30T11:32:46;19.75;19.75;14.50
62547;PMS7003;48602;45.192;5.722;2023-04-30T11:35:17;17.75;17.75;12.75
62547;PMS7003;48602;45.192;5.722;2023-04-30T11:37:43;20.50;19.25;14.75
62547;PMS7003;48602;45.192;5.722;2023-04-30T11:40:10;16.00;15.00;11.25
62547;PMS7003;48602;45.192;5.722;2023-04-30T11:42:37;21.00;20.00;15.00
62547;PMS7003;48602;45.192;5.722;2023-04-30T11:47:42;17.50;15.75;12.00
62547;PMS7003;48602;45.192;5.722;2023-04-30T11:50:08;21.75;21.75;16.25
62547;PMS7003;48602;45.192;5.722;2023-04-30T11:52:35;19.25;17.00;14.00
62547;PMS7003;48602;45.192;5.722;2023-04-30T11:55:20;24.00;23.25;17.25
62547;PMS7003;48602;45.192;5.722;2023-04-30T11:57:56;22.25;21.00;15.50
62547;PMS7003;48602;45.192;5.722;2023-04-30T12:00:27;24.75;23.75;17.75
62547;PMS7003;48602;45.192;5.722;2023-04-30T12:02:54;24.50;22.25;17.00
62547;PMS7003;48602;45.192;5.722;2023-04-30T12:05:22;23.25;21.00;15.50
62547;PMS7003;48602;45.192;5.722;2023-04-30T12:07:49;22.75;21.25;15.00
62547;PMS7003;48602;45.192;5.722;2023-04-30T12:10:18;24.00;22.50;17.25
62547;PMS7003;48602;45.192;5.722;2023-04-30T12:12:45;23.33;21.33;17.33
62547;PMS7003;48602;45.192;5.722;2023-04-30T12:17:39;24.00;21.50;17.00
62547;PMS7003;48602;45.192;5.722;2023-04-30T12:20:05;23.50;23.00;17.50
62547;PMS7003;48602;45.192;5.722;2023-04-30T12:22:32;24.00;23.50;19.00
62547;PMS7003;48602;45.192;5.722;2023-04-30T12:24:58;23.00;21.00;14.75
62547;PMS7003;48602;45.192;5.722;2023-04-30T12:27:24;22.50;20.00;14.50
62547;PMS7003;48602;45.192;5.722;2023-04-30T12:29:50;25.75;24.75;17.25
62547;PMS7003;48602;45.192;5.722;2023-04-30T12:32:19;26.67;23.67;18.00
62547;PMS7003;48602;45.192;5.722;2023-04-30T12:34:45;29.50;23.25;18.00
62547;PMS7003;48602;45.192;5.722;2023-04-30T12:37:15;26.00;24.75;19.00
62547;PMS7003;48602;45.192;5.722;2023-04-30T12:39:41;15.75;14.50;11.50
62547;PMS7003;48602;45.192;5.722;2023-04-30T12:42:07;26.50;23.25;18.00
62547;PMS7003;48602;45.192;5.722;2023-04-30T12:44:40;24.25;22.25;15.75
62547;PMS7003;48602;45.192;5.722;2023-04-30T12:47:08;22.75;22.25;17.25
62547;PMS7003;48602;45.192;5.722;2023-04-30T12:49:34;30.50;21.50;15.50
62547;PMS7003;48602;45.192;5.722;2023-04-30T12:52:09;26.00;23.25;14.50
62547;PMS7003;48602;45.192;5.722;2023-04-30T12:54:36;25.25;22.50;17.50
62547;PMS7003;48602;45.192;5.722;2023-04-30T12:59:30;21.25;20.25;16.50
62547;PMS7003;48602;45.192;5.722;2023-04-30T13:04:35;25.25;21.25;15.50
62547;PMS7003;48602;45.192;5.722;2023-04-30T13:07:01;26.75;25.00;19.75
62547;PMS7003;48602;45.192;5.722;2023-04-30T13:09:27;24.75;21.50;15.75
62547;PMS7003;48602;45.192;5.722;2023-04-30T13:11:53;22.50;22.50;17.75
62547;PMS7003;48602;45.192;5.722;2023-04-30T13:14:18;20.75;20.75;16.25
62547;PMS7003;48602;45.192;5.722;2023-04-30T13:16:43;23.25;22.25;16.75
62547;PMS7003;48602;45.192;5.722;2023-04-30T13:19:09;27.00;22.25;17.25
62547;PMS7003;48602;45.192;5.722;2023-04-30T13:21:35;29.00;26.33;19.67
62547;PMS7003;48602;45.192;5.722;2023-04-30T13:24:00;21.50;20.00;14.75
62547;PMS7003;48602;45.192;5.722;2023-04-30T13:26:26;21.75;21.50;16.75
62547;PMS7003;48602;45.192;5.722;2023-04-30T13:28:52;19.75;18.75;16.00
62547;PMS7003;48602;45.192;5.722;2023-04-30T13:31:18;26.00;24.00;17.00
62547;PMS7003;48602;45.192;5.722;2023-04-30T13:33:43;19.75;18.50;14.25
62547;PMS7003;48602;45.192;5.722;2023-04-30T13:36:09;19.75;19.50;15.00
62547;PMS7003;48602;45.192;5.722;2023-04-30T13:38:34;19.00;18.00;13.25
62547;PMS7003;48602;45.192;5.722;2023-04-30T13:40:59;24.75;23.75;19.00
62547;PMS7003;48602;45.192;5.722;2023-04-30T13:43:25;27.75;24.00;17.25
62547;PMS7003;48602;45.192;5.722;2023-04-30T13:45:50;26.75;24.50;17.50
62547;PMS7003;48602;45.192;5.722;2023-04-30T13:48:16;12.25;10.75;7.75
62547;PMS7003;48602;45.192;5.722;2023-04-30T13:50:41;17.25;16.50;12.50
62547;PMS7003;48602;45.192;5.722;2023-04-30T13:53:07;20.25;18.00;13.50
62547;PMS7003;48602;45.192;5.722;2023-04-30T13:55:32;21.00;20.25;15.25
62547;PMS7003;48602;45.192;5.722;2023-04-30T13:57:58;21.50;21.50;16.00
62547;PMS7003;48602;45.192;5.722;2023-04-30T14:00:24;17.00;15.50;11.25
62547;PMS7003;48602;45.192;5.722;2023-04-30T14:02:50;21.25;20.75;15.50
62547;PMS7003;48602;45.192;5.722;2023-04-30T14:05:16;23.00;20.25;17.25
62547;PMS7003;48602;45.192;5.722;2023-04-30T14:07:41;23.50;22.50;16.75
62547;PMS7003;48602;45.192;5.722;2023-04-30T14:10:07;21.00;20.25;15.00
62547;PMS7003;48602;45.192;5.722;2023-04-30T14:12:33;23.25;22.00;15.75
62547;PMS7003;48602;45.192;5.722;2023-04-30T14:14:58;20.50;18.00;14.00
62547;PMS7003;48602;45.192;5.722;2023-04-30T14:17:24;25.00;23.25;16.00
62547;PMS7003;48602;45.192;5.722;2023-04-30T14:19:53;22.00;20.25;15.25
62547;PMS7003;48602;45.192;5.722;2023-04-30T14:22:18;18.00;16.75;14.75
62547;PMS7003;48602;45.192;5.722;2023-04-30T14:24:44;20.00;19.75;16.00
62547;PMS7003;48602;45.192;5.722;2023-04-30T14:27:09;18.50;17.75;13.50
62547;PMS7003;48602;45.192;5.722;2023-04-30T14:29:35;23.00;21.75;16.25
62547;PMS7003;48602;45.192;5.722;2023-04-30T14:32:00;30.75;26.25;18.75